Portada
METAR-TAF:

METAR-TAF

Aeroports :

Volgograd, Rússia

latitud: 48-47N, longitud: 044-22E, altitud: 145 m

Observació

L'informe es va fer fa 18 minuts, a les 06:00 UTC
Vent 14 kt del Est/Sud-Est
Temperatura 11°C
Humitat 30%
Pressió 1015 hPa
Visibilitat 10 km o més
sense núvols per sota de 1500 mi sense presència de cumulonimbus.

METAR: URWW 290600Z 12007MPS CAVOK 11/M06 Q1015 R06/010070 NOSIG

Hora: 10:18 (06:18 UTC)

Pronòstic

L'informe es va fer fa 1 hora i 20 minuts, a les 04:58 UTC
Pronòstic vàlid del 29 a les 06 UTC al 29 a les 15 UTC
Vent 17 kt del Est/Sud-Est amb ràfegues de 27 kt
Visibilitat 10 km o més
Núvols disperses a una alçada de 2000 ft
Temporalment
l' 29 a les 06 UTC al 29 a les 15 UTC
Vent 23 kt del Sud-Est amb ràfegues de 33 kt
Visibilitat: 6000 m

TAF: URWW 290458Z 2906/2915 11009G14MPS 9999 SCT020 TEMPO 2906/2915 13012G17MPS 6000 -DS

Observacions i pronòstics meteorològics de més de 4000 aeroports (METAR i TAF).

Les estacions disponibles són els punts grocs i vermells al mapa.

Posi el ratolí al punt desitjat per veure el nom de l'estació.

Feu clic per veure les observacions i els pronòstics meteorològics.

Per canviar el mapa: feu clic els botons verds amb una creu de color negre per apropar; al botó verd amb un guió per allunyar la imatge; o en les fletxes verdes per a mapes adjacents.


METAR-TAF: